DLH66Y LFLL-EDDM
Flight info
| Callsign | DLH66Y |
|---|---|
| Flight time | N/A |
| Altitude | 30000 |
| Route | RISOR T45 SOSAL N871 KORED DCT BERSU N871 DITON/N0457F310 DCT NUNRI T103 BETOS BETOS1A |
| Aircraft | A320/M-SDE3FGHIRWY/LB1 |
Departure
| Time | 2026-05-01 15:07 |
|---|---|
| Airport | Lyon Saint-Exupéry Airport (LFLL) |
Arrival
| Time | N/A |
|---|---|
| Airport | Munich Airport (EDDM) |
| Time | Latitude | Longitude | Altitude | Speed | Heading |
|---|---|---|---|---|---|
| 2026-05-01 14:33 | 45.71856 | 5.08071 | 811 ft | 0 kts | 260° |
| 2026-05-01 14:56 | 45.71857 | 5.08079 | 811 ft | 2 kts | 260° |
| 2026-05-01 14:56 | 45.71861 | 5.08103 | 811 ft | 3 kts | 263° |
| 2026-05-01 14:57 | 45.71861 | 5.08120 | 811 ft | 3 kts | 287° |
| 2026-05-01 14:57 | 45.71841 | 5.08159 | 811 ft | 3 kts | 322° |
| 2026-05-01 14:57 | 45.71825 | 5.08170 | 811 ft | 3 kts | 358° |
| 2026-05-01 14:58 | 45.71812 | 5.08169 | 812 ft | 0 kts | 13° |
| 2026-05-01 15:00 | 45.71813 | 5.08169 | 812 ft | 2 kts | 13° |
| 2026-05-01 15:00 | 45.71849 | 5.08182 | 811 ft | 7 kts | 14° |
| 2026-05-01 15:00 | 45.71898 | 5.08200 | 810 ft | 7 kts | 14° |
| 2026-05-01 15:01 | 45.71948 | 5.08226 | 809 ft | 8 kts | 30° |
| 2026-05-01 15:01 | 45.71969 | 5.08295 | 809 ft | 7 kts | 94° |
| 2026-05-01 15:01 | 45.71956 | 5.08364 | 809 ft | 7 kts | 105° |
| 2026-05-01 15:01 | 45.71990 | 5.08449 | 809 ft | 14 kts | 1° |
| 2026-05-01 15:02 | 45.72087 | 5.08441 | 807 ft | 14 kts | 357° |
| 2026-05-01 15:02 | 45.72150 | 5.08435 | 806 ft | 14 kts | 355° |
| 2026-05-01 15:02 | 45.72274 | 5.08419 | 804 ft | 13 kts | 355° |
| 2026-05-01 15:02 | 45.72367 | 5.08409 | 803 ft | 15 kts | 355° |
| 2026-05-01 15:03 | 45.72474 | 5.08396 | 801 ft | 15 kts | 355° |
| 2026-05-01 15:03 | 45.72582 | 5.08383 | 799 ft | 16 kts | 355° |
| 2026-05-01 15:03 | 45.72693 | 5.08370 | 798 ft | 16 kts | 355° |
| 2026-05-01 15:03 | 45.72809 | 5.08355 | 796 ft | 20 kts | 355° |
| 2026-05-01 15:04 | 45.72952 | 5.08337 | 794 ft | 21 kts | 355° |
| 2026-05-01 15:04 | 45.73101 | 5.08320 | 791 ft | 21 kts | 355° |
| 2026-05-01 15:04 | 45.73251 | 5.08301 | 789 ft | 21 kts | 356° |
| 2026-05-01 15:04 | 45.73397 | 5.08283 | 787 ft | 21 kts | 355° |
| 2026-05-01 15:05 | 45.73559 | 5.08263 | 785 ft | 24 kts | 355° |
| 2026-05-01 15:05 | 45.73694 | 5.08274 | 783 ft | 17 kts | 37° |
| 2026-05-01 15:05 | 45.73720 | 5.08426 | 782 ft | 16 kts | 104° |
| 2026-05-01 15:05 | 45.73693 | 5.08580 | 781 ft | 16 kts | 97° |
| 2026-05-01 15:06 | 45.73640 | 5.08715 | 782 ft | 20 kts | 161° |
| 2026-05-01 15:06 | 45.73328 | 5.08756 | 790 ft | 78 kts | 175° |
| 2026-05-01 15:06 | 45.72576 | 5.08847 | 797 ft | 136 kts | 175° |
| 2026-05-01 15:06 | 45.71515 | 5.08965 | 1121 ft | 156 kts | 178° |
| 2026-05-01 15:07 | 45.70444 | 5.09095 | 1931 ft | 155 kts | 176° |
| 2026-05-01 15:07 | 45.69305 | 5.09239 | 2353 ft | 175 kts | 176° |
| 2026-05-01 15:07 | 45.68029 | 5.09398 | 2816 ft | 195 kts | 176° |
| 2026-05-01 15:07 | 45.66580 | 5.09562 | 3189 ft | 221 kts | 176° |
| 2026-05-01 15:08 | 45.65007 | 5.09743 | 3875 ft | 234 kts | 176° |
| 2026-05-01 15:08 | 45.63368 | 5.09943 | 4816 ft | 238 kts | 175° |
| 2026-05-01 15:08 | 45.61738 | 5.10542 | 5499 ft | 255 kts | 149° |
| 2026-05-01 15:08 | 45.60544 | 5.12492 | 6238 ft | 273 kts | 113° |
| 2026-05-01 15:09 | 45.60327 | 5.15193 | 7145 ft | 282 kts | 83° |
| 2026-05-01 15:09 | 45.60619 | 5.17969 | 8044 ft | 284 kts | 89° |
| 2026-05-01 15:09 | 45.60355 | 5.20754 | 8973 ft | 284 kts | 109° |
| 2026-05-01 15:09 | 45.59733 | 5.23442 | 9904 ft | 287 kts | 110° |
| 2026-05-01 15:10 | 45.59101 | 5.26175 | 10615 ft | 298 kts | 110° |
| 2026-05-01 15:10 | 45.57706 | 5.32241 | 11276 ft | 344 kts | 110° |
| 2026-05-01 15:10 | 45.56948 | 5.35543 | 11875 ft | 353 kts | 110° |
| 2026-05-01 15:11 | 45.56176 | 5.38899 | 12621 ft | 358 kts | 109° |
| 2026-05-01 15:11 | 45.54610 | 5.45713 | 14188 ft | 365 kts | 110° |
| 2026-05-01 15:11 | 45.53813 | 5.49181 | 14874 ft | 368 kts | 110° |
| 2026-05-01 15:12 | 45.53008 | 5.52672 | 15530 ft | 372 kts | 110° |
| 2026-05-01 15:12 | 45.51409 | 5.59766 | 16795 ft | 380 kts | 105° |
| 2026-05-01 15:12 | 45.51013 | 5.63515 | 17401 ft | 386 kts | 95° |
| 2026-05-01 15:13 | 45.51875 | 5.75126 | 19078 ft | 399 kts | 84° |
| 2026-05-01 15:14 | 45.52607 | 5.83023 | 20079 ft | 405 kts | 84° |
| 2026-05-01 15:14 | 45.52975 | 5.87024 | 20583 ft | 408 kts | 83° |
| 2026-05-01 15:14 | 45.54903 | 5.94683 | 21535 ft | 418 kts | 59° |
| 2026-05-01 15:15 | 45.58860 | 6.00804 | 22462 ft | 427 kts | 36° |
| 2026-05-01 15:15 | 45.63899 | 6.05333 | 23435 ft | 433 kts | 32° |
| 2026-05-01 15:16 | 45.69057 | 6.09897 | 24260 ft | 439 kts | 32° |
| 2026-05-01 15:16 | 45.74267 | 6.14530 | 25025 ft | 443 kts | 32° |
| 2026-05-01 15:17 | 45.79528 | 6.19223 | 25779 ft | 447 kts | 32° |
| 2026-05-01 15:18 | 45.87503 | 6.26358 | 26891 ft | 454 kts | 32° |
| 2026-05-01 15:18 | 45.90189 | 6.28762 | 27242 ft | 456 kts | 32° |
| 2026-05-01 15:19 | 45.98317 | 6.36055 | 28255 ft | 462 kts | 32° |
| 2026-05-01 15:19 | 46.03791 | 6.40981 | 28892 ft | 466 kts | 32° |
| 2026-05-01 15:19 | 46.06545 | 6.43462 | 29201 ft | 468 kts | 32° |
| 2026-05-01 15:20 | 46.12083 | 6.48461 | 29951 ft | 469 kts | 32° |
| 2026-05-01 15:20 | 46.14842 | 6.50960 | 30379 ft | 468 kts | 32° |
| 2026-05-01 15:20 | 46.17594 | 6.53458 | 30766 ft | 467 kts | 32° |
| 2026-05-01 15:21 | 46.20339 | 6.55953 | 31153 ft | 466 kts | 32° |
| 2026-05-01 15:21 | 46.23082 | 6.58448 | 31539 ft | 465 kts | 31° |
| 2026-05-01 15:21 | 46.25813 | 6.60935 | 31922 ft | 463 kts | 31° |
| 2026-05-01 15:21 | 46.28540 | 6.63419 | 32324 ft | 462 kts | 31° |
| 2026-05-01 15:22 | 46.33959 | 6.68357 | 33064 ft | 460 kts | 31° |
| 2026-05-01 15:22 | 46.36657 | 6.70831 | 33442 ft | 459 kts | 31° |
| 2026-05-01 15:22 | 46.39353 | 6.73310 | 33818 ft | 458 kts | 31° |
| 2026-05-01 15:23 | 46.42041 | 6.75782 | 34165 ft | 457 kts | 31° |
| 2026-05-01 15:23 | 46.44723 | 6.78247 | 34256 ft | 458 kts | 31° |
| 2026-05-01 15:23 | 46.50116 | 6.83202 | 34264 ft | 458 kts | 31° |
| 2026-05-01 15:24 | 46.55380 | 6.88435 | 34267 ft | 459 kts | 40° |
| 2026-05-01 15:24 | 46.59648 | 6.95331 | 34267 ft | 460 kts | 51° |
| 2026-05-01 15:25 | 46.63666 | 7.02585 | 34269 ft | 460 kts | 51° |
| 2026-05-01 15:25 | 46.67695 | 7.09851 | 34268 ft | 460 kts | 51° |
| 2026-05-01 15:26 | 46.71711 | 7.17109 | 34265 ft | 460 kts | 51° |
| 2026-05-01 15:26 | 46.75714 | 7.24371 | 34249 ft | 461 kts | 51° |
| 2026-05-01 15:27 | 46.79721 | 7.31669 | 34244 ft | 461 kts | 51° |
| 2026-05-01 15:28 | 46.85640 | 7.42491 | 34248 ft | 460 kts | 51° |
| 2026-05-01 15:28 | 46.89635 | 7.49811 | 34252 ft | 460 kts | 51° |
| 2026-05-01 15:29 | 46.95600 | 7.60796 | 34252 ft | 460 kts | 51° |
| 2026-05-01 15:30 | 47.03529 | 7.75452 | 34264 ft | 459 kts | 51° |
| 2026-05-01 15:31 | 47.15119 | 7.97774 | 34282 ft | 459 kts | 57° |
| 2026-05-01 15:32 | 47.21893 | 8.13652 | 34293 ft | 457 kts | 57° |
| 2026-05-01 15:34 | 47.31240 | 8.37859 | 34285 ft | 455 kts | 71° |